Time;durP1;ratioP1;P1;durP2;ratioP2;P2;SDS_P1;SDS_P2;PMS_P1;PMS_P2;Temp;Humidity;BMP_temperature;BMP_pressure;BME280_temperature;BME280_humidity;BME280_pressure;Samples;Min_cycle;Max_cycle;Signal;HPM_P1;HPM_P2
2023/09/16 00:03:13;;;;;;;9.68;6.05;;;;;;;17.78;100.00;100419.22;8210233;28;20035;-87
2023/09/16 00:07:14;;;;;;;9.68;5.70;;;;;;;17.71;100.00;100399.16;8207837;28;20053;-87
2023/09/16 00:11:14;;;;;;;10.27;6.05;;;;;;;17.75;100.00;100403.19;8235783;28;20061;-87
2023/09/16 00:15:15;;;;;;;8.27;5.90;;;;;;;17.72;100.00;100395.41;8232937;28;20114;-87
2023/09/16 00:19:15;;;;;;;12.43;5.63;;;;;;;17.82;100.00;100408.78;8228880;28;20034;-90
2023/09/16 00:23:16;;;;;;;9.55;5.93;;;;;;;17.85;100.00;100398.31;8208064;28;20048;-89
2023/09/16 00:27:17;;;;;;;10.02;5.57;;;;;;;17.77;100.00;100406.59;8209294;28;20049;-91
2023/09/16 00:31:18;;;;;;;11.73;6.32;;;;;;;17.66;100.00;100393.41;8225252;28;20034;-90
2023/09/16 00:35:19;;;;;;;8.38;5.82;;;;;;;17.63;100.00;100391.06;8246342;28;20046;-90
2023/09/16 00:39:20;;;;;;;10.85;6.13;;;;;;;17.80;100.00;100400.75;8201504;28;20408;-89
2023/09/16 00:43:20;;;;;;;8.07;5.70;;;;;;;17.72;100.00;100387.19;8226089;28;20057;-90
2023/09/16 00:47:21;;;;;;;9.75;5.65;;;;;;;17.65;100.00;100399.91;8230161;28;20093;-90
2023/09/16 00:51:21;;;;;;;10.00;6.13;;;;;;;17.64;100.00;100400.97;8209338;28;20570;-90
2023/09/16 00:55:23;;;;;;;12.98;6.00;;;;;;;17.62;100.00;100383.88;8232957;28;20050;-90
2023/09/16 00:59:25;;;;;;;9.57;6.13;;;;;;;17.59;100.00;100381.53;8211940;28;20050;-89
2023/09/16 01:03:27;;;;;;;8.38;6.22;;;;;;;17.72;100.00;100392.66;8200473;28;20049;-88
2023/09/16 01:07:28;;;;;;;8.98;6.35;;;;;;;17.75;100.00;100384.06;8229760;28;20038;-89
2023/09/16 01:11:28;;;;;;;8.30;5.53;;;;;;;17.81;100.00;100396.97;8240649;28;20088;-88
2023/09/16 01:15:34;;;;;;;10.05;6.47;;;;;;;17.77;100.00;100371.03;8228566;28;20508;-89
2023/09/16 01:19:47;;;;;;;10.27;6.47;;;;;;;17.77;100.00;100368.31;8191624;28;20034;-88
2023/09/16 01:23:48;;;;;;;7.78;6.07;;;;;;;17.79;100.00;100379.91;8221257;28;20041;-88
2023/09/16 01:27:48;;;;;;;11.27;5.72;;;;;;;17.82;100.00;100376.81;8226363;28;20034;-88
2023/09/16 01:31:49;;;;;;;13.05;6.07;;;;;;;17.80;100.00;100370.66;8251487;28;20088;-88
2023/09/16 01:35:58;;;;;;;8.73;6.60;;;;;;;17.69;100.00;100360.22;8262983;28;20064;-86
2023/09/16 01:40:00;;;;;;;7.85;5.75;;;;;;;17.83;100.00;100372.16;8241802;28;20048;-86
2023/09/16 01:44:03;;;;;;;10.20;6.15;;;;;;;17.81;100.00;100369.63;8244606;28;20586;-86
2023/09/16 01:48:05;;;;;;;10.02;6.30;;;;;;;17.81;100.00;100369.63;8234972;28;20034;-87
2023/09/16 01:52:08;;;;;;;9.93;6.25;;;;;;;17.66;100.00;100355.16;8240882;28;20031;-87
2023/09/16 01:56:09;;;;;;;8.00;5.63;;;;;;;17.63;100.00;100356.34;8209115;28;20385;-87
2023/09/16 02:00:10;;;;;;;8.57;6.05;;;;;;;17.75;100.00;100370.38;8187019;28;20100;-88
2023/09/16 02:04:25;;;;;;;8.15;6.20;;;;;;;17.77;100.00;100378.41;8339862;27;20831;-58
2023/09/16 02:08:26;;;;;;;11.10;6.20;;;;;;;17.71;100.00;100369.06;8334637;28;20038;-57
2023/09/16 02:12:27;;;;;;;10.63;6.55;;;;;;;17.78;100.00;100375.47;8327418;28;20166;-61
2023/09/16 02:16:28;;;;;;;9.98;6.80;;;;;;;17.82;100.00;100371.34;8330474;28;20100;-57
2023/09/16 02:20:29;;;;;;;7.85;6.32;;;;;;;17.88;100.00;100367.84;8334136;28;20045;-56
2023/09/16 02:24:31;;;;;;;8.35;6.30;;;;;;;17.81;100.00;100375.09;8336886;28;20039;-57
2023/09/16 02:28:31;;;;;;;10.93;6.28;;;;;;;17.84;100.00;100363.75;8355993;28;20051;-59
2023/09/16 02:32:32;;;;;;;10.07;6.20;;;;;;;17.83;100.00;100373.03;8278722;28;20654;-61
2023/09/16 02:36:32;;;;;;;9.13;6.60;;;;;;;17.82;100.00;100360.41;8278585;28;20587;-60
2023/09/16 02:40:32;;;;;;;8.70;6.30;;;;;;;17.77;100.00;100364.72;8281063;28;20052;-61
2023/09/16 02:44:33;;;;;;;12.57;6.75;;;;;;;17.64;100.00;100368.16;8279203;28;20052;-61
2023/09/16 02:48:34;;;;;;;8.15;6.28;;;;;;;17.62;100.00;100359.28;8275896;28;20103;-61
2023/09/16 02:52:35;;;;;;;10.57;6.93;;;;;;;17.53;100.00;100365.88;8276574;28;20125;-60
2023/09/16 02:56:35;;;;;;;7.90;6.47;;;;;;;17.51;100.00;100367.97;8279643;28;20339;-66
2023/09/16 03:00:36;;;;;;;10.50;7.20;;;;;;;17.45;100.00;100363.25;8331372;28;20034;-66
2023/09/16 03:04:37;;;;;;;9.90;6.28;;;;;;;17.32;100.00;100357.53;8335234;28;20040;-67
2023/09/16 03:08:38;;;;;;;11.40;6.78;;;;;;;17.22;100.00;100351.50;8332799;28;20057;-67
2023/09/16 03:12:38;;;;;;;17.50;6.85;;;;;;;17.24;100.00;100355.78;8326745;28;20499;-67
2023/09/16 03:16:39;;;;;;;10.20;7.40;;;;;;;17.25;100.00;100345.66;8309654;28;20049;-67
2023/09/16 03:20:40;;;;;;;9.57;7.13;;;;;;;17.22;100.00;100346.91;8310350;28;20053;-67
2023/09/16 03:24:42;;;;;;;10.85;7.05;;;;;;;17.18;100.00;100347.47;8313510;28;20068;-66
2023/09/16 03:28:45;;;;;;;11.00;7.45;;;;;;;17.13;100.00;100347.16;8289013;28;20708;-58
2023/09/16 03:32:47;;;;;;;14.57;7.17;;;;;;;17.08;100.00;100344.16;8297574;28;20042;-59
2023/09/16 03:36:49;;;;;;;14.68;7.93;;;;;;;17.02;100.00;100336.72;8311815;28;20065;-58
2023/09/16 03:40:50;;;;;;;13.65;7.45;;;;;;;16.96;100.00;100340.19;8309713;28;20034;-58
2023/09/16 03:44:51;;;;;;;12.00;7.28;;;;;;;16.92;100.00;100333.38;8309770;28;20049;-59
2023/09/16 03:48:51;;;;;;;10.00;7.18;;;;;;;16.87;100.00;100328.47;8311550;28;20073;-59
2023/09/16 03:52:52;;;;;;;10.23;7.22;;;;;;;16.89;100.00;100325.56;8311383;28;20034;-59
2023/09/16 03:56:53;;;;;;;12.73;7.75;;;;;;;16.84;100.00;100325.28;8309821;28;20046;-58
2023/09/16 04:00:53;;;;;;;11.57;7.72;;;;;;;16.82;100.00;100327.34;8308960;28;20088;-59
2023/09/16 04:04:54;;;;;;;14.20;7.72;;;;;;;16.81;100.00;100325.66;8269731;28;21513;-59
2023/09/16 04:08:55;;;;;;;9.15;6.78;;;;;;;16.73;100.00;100328.44;8306458;28;20037;-59
2023/09/16 04:12:56;;;;;;;11.95;7.95;;;;;;;16.62;100.00;100323.44;8311960;28;20046;-60
2023/09/16 04:16:56;;;;;;;12.73;7.18;;;;;;;16.63;100.00;100319.66;8291386;28;20150;-61
2023/09/16 04:20:57;;;;;;;12.70;7.35;;;;;;;16.56;100.00;100321.44;8254564;28;20069;-61
2023/09/16 04:24:57;;;;;;;11.25;6.80;;;;;;;16.58;100.00;100319.38;8253298;28;20070;-61
2023/09/16 04:28:58;;;;;;;10.27;6.60;;;;;;;16.49;100.00;100317.72;8256418;28;20037;-61
2023/09/16 04:32:58;;;;;;;12.20;6.72;;;;;;;16.38;100.00;100318.16;8254707;28;20108;-61
2023/09/16 04:36:59;;;;;;;12.70;7.30;;;;;;;16.33;100.00;100315.09;8263173;28;20125;-60
2023/09/16 04:41:00;;;;;;;9.07;7.15;;;;;;;16.29;100.00;100314.66;8261985;28;20046;-61
2023/09/16 04:45:05;;;;;;;12.70;7.30;;;;;;;16.21;100.00;100311.97;8269828;28;20053;-62
2023/09/16 04:49:06;;;;;;;11.52;6.80;;;;;;;16.25;100.00;100313.28;8269373;28;20042;-61
2023/09/16 04:53:08;;;;;;;18.80;7.22;;;;;;;16.18;100.00;100311.47;8279515;28;20172;-62
2023/09/16 04:57:08;;;;;;;10.63;7.25;;;;;;;16.15;100.00;100307.22;8277186;28;20042;-62
2023/09/16 05:01:09;;;;;;;11.73;7.47;;;;;;;16.10;100.00;100314.28;8282894;28;20038;-61
2023/09/16 05:05:11;;;;;;;9.82;6.85;;;;;;;16.11;100.00;100302.31;8308536;28;20068;-62
2023/09/16 05:09:13;;;;;;;12.60;7.10;;;;;;;16.05;100.00;100306.63;8307745;28;20041;-61
2023/09/16 05:13:13;;;;;;;11.68;7.18;;;;;;;16.03;100.00;100303.22;8308355;28;20171;-61
2023/09/16 05:17:14;;;;;;;10.23;7.38;;;;;;;15.98;100.00;100313.00;8309493;28;20029;-62
2023/09/16 05:21:14;;;;;;;9.23;6.60;;;;;;;15.91;100.00;100310.13;8306493;28;20486;-62
2023/09/16 05:25:15;;;;;;;17.98;10.05;;;;;;;15.95;100.00;100314.16;8308610;28;20037;-61
2023/09/16 05:29:16;;;;;;;13.43;7.53;;;;;;;16.01;100.00;100318.06;8308832;28;20052;-58
2023/09/16 05:33:17;;;;;;;11.65;7.57;;;;;;;16.07;100.00;100306.44;8283750;28;20037;-59
2023/09/16 05:37:17;;;;;;;13.20;7.25;;;;;;;16.10;100.00;100303.38;8303342;28;20046;-58
2023/09/16 05:41:18;;;;;;;13.75;7.25;;;;;;;16.24;100.00;100299.84;8302420;28;20498;-58
2023/09/16 05:45:19;;;;;;;10.05;7.22;;;;;;;16.41;100.00;100298.69;8304023;28;20042;-59
2023/09/16 05:49:20;;;;;;;14.70;7.28;;;;;;;16.66;100.00;100305.66;8274039;28;20060;-61
2023/09/16 05:53:21;;;;;;;9.20;6.38;;;;;;;16.79;100.00;100314.06;8252299;28;20033;-61
2023/09/16 05:57:22;;;;;;;12.75;6.97;;;;;;;16.90;100.00;100311.72;8252202;28;20422;-61
2023/09/16 06:01:23;;;;;;;7.43;6.43;;;;;;;16.98;100.00;100316.25;8215631;28;20707;-60
2023/09/16 06:05:29;;;;;;;10.63;6.88;;;;;;;17.18;100.00;100311.94;8215560;28;20115;-61
2023/09/16 06:09:29;;;;;;;9.38;6.00;;;;;;;17.28;100.00;100317.97;8217033;28;20045;-61
2023/09/16 06:13:30;;;;;;;9.40;6.00;;;;;;;17.36;100.00;100326.91;8216753;28;20512;-61
2023/09/16 06:17:31;;;;;;;8.38;6.15;;;;;;;17.62;100.00;100323.72;8278919;28;20456;-66
2023/09/16 06:21:32;;;;;;;10.30;6.45;;;;;;;17.84;100.00;100330.94;8305826;28;20041;-66
2023/09/16 06:25:34;;;;;;;10.98;6.68;;;;;;;18.11;100.00;100327.50;8308545;28;20041;-66
2023/09/16 06:29:35;;;;;;;12.02;5.97;;;;;;;18.50;100.00;100336.16;8305824;28;20037;-64
2023/09/16 06:33:35;;;;;;;8.55;5.95;;;;;;;18.89;100.00;100330.19;8297810;28;20044;-66
2023/09/16 06:37:36;;;;;;;6.93;5.38;;;;;;;19.13;99.88;100321.50;8303084;28;20125;-59
2023/09/16 06:41:37;;;;;;;9.27;6.03;;;;;;;19.21;97.98;100332.31;8280174;28;20899;-58
2023/09/16 06:45:48;;;;;;;11.85;5.55;;;;;;;19.48;96.77;100317.75;8266858;28;20046;-59
2023/09/16 06:49:49;;;;;;;13.10;5.60;;;;;;;19.64;95.24;100330.28;8270095;28;20129;-58
2023/09/16 06:53:49;;;;;;;6.25;4.25;;;;;;;20.00;93.89;100328.13;8277235;28;20043;-61
2023/09/16 06:57:50;;;;;;;8.40;4.95;;;;;;;20.07;91.50;100329.00;8277002;28;20117;-66
2023/09/16 07:01:50;;;;;;;6.45;4.65;;;;;;;20.10;91.99;100339.56;8271622;28;20137;-65
2023/09/16 07:05:51;;;;;;;5.57;4.25;;;;;;;20.36;91.37;100334.16;8273810;28;20038;-67
2023/09/16 07:09:54;;;;;;;8.10;4.60;;;;;;;20.39;90.49;100336.50;8274768;28;20058;-66
2023/09/16 07:13:55;;;;;;;9.15;4.63;;;;;;;20.31;90.72;100333.94;8278472;28;20045;-66
2023/09/16 07:17:55;;;;;;;6.75;4.25;;;;;;;20.40;90.77;100335.47;8295100;28;20510;-65
2023/09/16 07:21:56;;;;;;;5.85;4.30;;;;;;;20.48;90.86;100330.59;8308808;28;20038;-67
2023/09/16 07:25:58;;;;;;;7.78;4.43;;;;;;;20.63;88.80;100342.25;8306676;28;20041;-63
2023/09/16 07:29:59;;;;;;;10.88;4.10;;;;;;;20.79;89.16;100340.97;8307625;28;20121;-66
2023/09/16 07:33:59;;;;;;;8.07;4.50;;;;;;;21.17;88.19;100334.66;8306933;28;20046;-66
2023/09/16 07:38:00;;;;;;;6.47;5.03;;;;;;;21.51;86.12;100340.94;8309379;28;20066;-66
2023/09/16 07:42:00;;;;;;;9.57;4.47;;;;;;;21.66;84.33;100350.66;8307244;28;20107;-67
2023/09/16 07:46:01;;;;;;;6.70;4.60;;;;;;;21.63;83.15;100348.34;8305772;28;20053;-67
2023/09/16 07:50:02;;;;;;;6.18;4.00;;;;;;;21.77;82.54;100346.44;8308867;28;20080;-62
2023/09/16 07:54:02;;;;;;;5.75;4.25;;;;;;;21.67;84.25;100341.31;8306787;28;20049;-62
2023/09/16 07:58:03;;;;;;;6.20;4.03;;;;;;;22.08;82.08;100339.06;8307568;28;20048;-57
2023/09/16 08:02:04;;;;;;;6.95;4.30;;;;;;;22.01;82.17;100354.78;8301678;28;20496;-59
2023/09/16 08:06:06;;;;;;;5.72;4.45;;;;;;;22.21;82.27;100350.03;8301229;28;20053;-58
2023/09/16 08:10:06;;;;;;;8.18;3.90;;;;;;;22.47;82.59;100349.03;8300069;28;20041;-57
2023/09/16 08:14:07;;;;;;;7.88;4.40;;;;;;;22.73;82.76;100344.22;8303190;28;20092;-59
2023/09/16 08:18:07;;;;;;;5.82;3.67;;;;;;;22.67;81.24;100350.63;8299135;28;20045;-59
2023/09/16 08:22:08;;;;;;;4.35;3.65;;;;;;;23.05;79.65;100354.16;8300299;28;20037;-58
2023/09/16 08:26:08;;;;;;;5.93;3.47;;;;;;;23.24;79.17;100366.13;8293188;28;20594;-59
2023/09/16 08:30:09;;;;;;;5.10;3.55;;;;;;;23.46;79.21;100361.00;8296437;28;20112;-62
2023/09/16 08:34:10;;;;;;;5.75;4.38;;;;;;;23.69;77.69;100358.44;8305620;28;20041;-62
2023/09/16 08:38:10;;;;;;;9.48;4.32;;;;;;;23.55;76.53;100365.16;8304397;28;20069;-60
2023/09/16 08:42:35;;;;;;;7.57;4.03;;;;;;;23.63;77.37;100362.13;8304071;28;20045;-58
2023/09/16 08:46:45;;;;;;;12.05;4.28;;;;;;;23.96;75.80;100362.59;8302630;28;20183;-59
2023/09/16 08:50:48;;;;;;;8.93;4.03;;;;;;;24.02;75.67;100361.66;8303028;28;20531;-59
2023/09/16 08:54:49;;;;;;;4.68;4.00;;;;;;;24.42;75.00;100365.59;8295714;28;20136;-58
2023/09/16 08:58:50;;;;;;;5.95;4.03;;;;;;;24.60;73.56;100360.03;8266164;28;20045;-58
2023/09/16 09:02:52;;;;;;;6.30;4.40;;;;;;;24.54;73.02;100366.50;8270530;28;20046;-62
2023/09/16 09:06:54;;;;;;;7.18;3.95;;;;;;;24.37;74.48;100359.94;8268198;28;20547;-59
2023/09/16 09:10:55;;;;;;;6.50;4.25;;;;;;;24.51;74.71;100367.81;8271030;28;22487;-60
2023/09/16 09:14:57;;;;;;;4.78;3.95;;;;;;;24.62;73.27;100371.69;8268780;28;20382;-61
2023/09/16 09:18:58;;;;;;;6.32;4.10;;;;;;;24.93;73.67;100371.47;8270817;28;20422;-61
2023/09/16 09:22:59;;;;;;;5.60;4.28;;;;;;;26.12;69.98;100366.31;8268550;28;20538;-61
2023/09/16 09:27:01;;;;;;;4.95;3.92;;;;;;;27.48;65.42;100375.28;8260608;28;20040;-61
2023/09/16 09:31:01;;;;;;;5.55;3.08;;;;;;;29.12;61.11;100383.28;8279485;28;20034;-58
2023/09/16 09:35:06;;;;;;;4.13;3.63;;;;;;;29.73;58.80;100389.09;8299447;28;20266;-57
2023/09/16 09:39:08;;;;;;;7.25;3.40;;;;;;;30.43;57.65;100383.06;8296808;28;20042;-62
2023/09/16 09:43:08;;;;;;;10.85;4.47;;;;;;;31.09;55.85;100386.88;8299735;28;20042;-61
2023/09/16 09:47:12;;;;;;;10.48;4.00;;;;;;;31.81;54.34;100395.84;8294348;28;20130;-61
2023/09/16 09:51:17;;;;;;;3.80;3.40;;;;;;;31.97;54.91;100394.69;8282726;28;20477;-59
2023/09/16 09:55:20;;;;;;;7.05;4.18;;;;;;;32.19;54.43;100381.19;8289118;28;20037;-59
2023/09/16 09:59:21;;;;;;;5.18;4.45;;;;;;;32.22;53.66;100378.69;8287314;28;20033;-60
2023/09/16 10:03:22;;;;;;;12.27;5.05;;;;;;;32.91;52.45;100377.81;8290698;28;20574;-60
2023/09/16 10:07:25;;;;;;;6.25;3.72;;;;;;;33.53;50.67;100381.53;8289884;28;20040;-57
2023/09/16 10:11:28;;;;;;;6.03;4.55;;;;;;;33.43;50.76;100376.03;8298287;28;20136;-59
2023/09/16 10:15:32;;;;;;;6.90;4.43;;;;;;;33.06;51.18;100381.34;8296964;28;20626;-59
2023/09/16 10:19:33;;;;;;;5.22;3.83;;;;;;;32.72;52.53;100380.41;8283364;28;20117;-57
2023/09/16 10:23:34;;;;;;;5.20;4.07;;;;;;;32.93;51.16;100376.38;8277273;28;20068;-58
2023/09/16 10:27:48;;;;;;;4.07;3.72;;;;;;;33.27;51.49;100371.63;8303966;28;20065;-61
2023/09/16 10:31:50;;;;;;;6.75;4.00;;;;;;;33.69;50.56;100373.78;8296959;28;20461;-62
2023/09/16 10:35:51;;;;;;;5.68;4.20;;;;;;;34.00;50.33;100375.19;8301850;28;20042;-62
2023/09/16 10:39:51;;;;;;;4.68;4.07;;;;;;;33.70;50.06;100367.06;8301100;28;20048;-62
2023/09/16 10:43:52;;;;;;;6.13;3.78;;;;;;;34.32;49.83;100368.91;8304808;28;20539;-62
2023/09/16 10:47:53;;;;;;;4.90;4.40;;;;;;;34.52;48.93;100368.69;8298279;28;20472;-59
2023/09/16 10:51:58;;;;;;;4.60;3.95;;;;;;;33.93;51.42;100364.31;8300379;28;20026;-57
2023/09/16 10:56:24;;;;;;;7.30;4.68;;;;;;;34.54;48.50;100366.38;8299492;28;20132;-58
2023/09/16 11:00:32;;;;;;;5.80;4.15;;;;;;;34.63;48.79;100365.41;8298092;28;20640;-58
2023/09/16 11:04:33;;;;;;;6.70;4.22;;;;;;;34.98;48.54;100356.50;8299608;28;20100;-59
2023/09/16 11:08:34;;;;;;;6.55;5.00;;;;;;;35.37;46.96;100342.09;8295273;28;20070;-58
2023/09/16 11:12:35;;;;;;;6.20;4.38;;;;;;;34.78;48.06;100347.50;8274996;28;20042;-57
2023/09/16 11:16:47;;;;;;;7.57;3.55;;;;;;;35.39;46.50;100337.00;8314935;28;20042;-57
2023/09/16 11:20:47;;;;;;;6.53;3.72;;;;;;;35.02;46.79;100337.88;8316809;22;20127;-85
2023/09/16 11:24:52;;;;;;;5.15;4.13;;;;;;;35.22;47.24;100339.53;8248466;28;20041;-85
2023/09/16 11:28:53;;;;;;;7.53;4.10;;;;;;;36.15;45.10;100311.88;8239737;28;20043;-85
2023/09/16 11:37:21;;;;;;;4.72;3.60;;;;;;;34.83;47.51;100322.13;8369995;27;1288518;-83
2023/09/16 11:41:22;;;;;;;7.65;4.05;;;;;;;33.51;49.86;100330.50;8346026;28;20037;-90
2023/09/16 11:45:28;;;;;;;9.07;3.95;;;;;;;34.15;49.26;100309.63;8380585;28;20553;-88
2023/09/16 11:49:33;;;;;;;4.55;3.50;;;;;;;35.05;47.32;100291.44;8378820;28;20375;-91
2023/09/16 11:53:33;;;;;;;6.72;3.20;;;;;;;35.73;47.48;100326.22;8345607;28;20124;-89
2023/09/16 11:57:34;;;;;;;4.03;3.63;;;;;;;35.99;45.96;100289.97;8363621;28;20044;-89
2023/09/16 12:01:42;;;;;;;3.42;3.13;;;;;;;34.64;48.41;100251.09;8370178;28;20048;-86
2023/09/16 12:05:43;;;;;;;4.97;3.78;;;;;;;35.27;46.70;100269.13;8341894;28;20041;-91
2023/09/16 12:09:55;;;;;;;4.30;3.63;;;;;;;35.09;47.30;100304.56;8389428;28;20067;-92
2023/09/16 12:13:56;;;;;;;13.63;4.90;;;;;;;34.22;48.11;100293.22;8347654;28;20045;-90
2023/09/16 12:18:01;;;;;;;4.95;3.90;;;;;;;33.12;49.36;100256.88;8351405;28;20056;-91
2023/09/16 12:22:02;;;;;;;3.97;3.58;;;;;;;33.16;50.00;100297.19;8379403;22;20056;-81
2023/09/16 12:26:10;;;;;;;14.90;6.70;;;;;;;33.21;50.98;100294.31;8282449;28;20042;-96
2023/09/16 12:30:11;;;;;;;4.05;3.30;;;;;;;32.35;51.49;100295.25;8273725;23;20056;-87
2023/09/16 12:34:18;;;;;;;5.63;3.83;;;;;;;31.49;53.84;100242.41;8312300;28;20048;-88
2023/09/16 12:38:19;;;;;;;6.60;3.83;;;;;;;30.49;55.46;100273.13;8297455;28;20033;-88
2023/09/16 12:42:20;;;;;;;7.03;4.30;;;;;;;29.82;56.56;100287.09;8265996;28;20038;-88
2023/09/16 12:46:22;;;;;;;7.00;4.13;;;;;;;29.97;57.26;100267.66;8273427;28;20514;-87
2023/09/16 12:50:25;;;;;;;6.53;3.78;;;;;;;29.78;56.73;100241.38;8279480;28;20531;-87
2023/09/16 12:54:25;;;;;;;5.40;3.95;;;;;;;30.19;56.33;100268.31;8273954;28;20102;-89
2023/09/16 12:58:26;;;;;;;3.95;3.55;;;;;;;29.75;55.67;100236.34;8258313;28;20116;-87
2023/09/16 13:02:27;;;;;;;4.25;3.13;;;;;;;30.04;54.94;100273.81;8261369;28;20121;-87
2023/09/16 13:06:28;;;;;;;6.07;3.15;;;;;;;29.86;55.22;100265.09;8227705;28;20178;-89
2023/09/16 13:10:29;;;;;;;10.25;4.50;;;;;;;29.78;58.86;100258.09;8258992;28;20034;-87
2023/09/16 13:14:30;;;;;;;4.20;3.30;;;;;;;29.72;57.89;100270.34;8266378;28;20539;-88
2023/09/16 13:18:31;;;;;;;4.85;3.42;;;;;;;29.52;58.66;100252.66;8246960;28;20459;-89
2023/09/16 13:22:31;;;;;;;5.35;3.83;;;;;;;29.51;59.48;100250.94;8252414;28;20038;-87
2023/09/16 13:26:32;;;;;;;5.40;3.85;;;;;;;29.39;58.73;100237.25;8277382;28;20048;-87
2023/09/16 13:30:36;;;;;;;6.70;3.88;;;;;;;29.51;59.89;100251.78;8289298;28;20068;-89
2023/09/16 13:34:44;;;;;;;7.20;3.72;;;;;;;29.70;58.28;100260.56;8265492;28;20588;-89
2023/09/16 13:38:46;;;;;;;4.80;3.28;;;;;;;29.51;59.19;100243.44;8264352;28;20041;-88
2023/09/16 13:42:47;;;;;;;5.38;3.80;;;;;;;29.80;58.87;100261.47;8274110;28;20045;-88
2023/09/16 13:46:49;;;;;;;5.05;3.70;;;;;;;29.84;58.01;100257.00;8272412;28;20049;-89
2023/09/16 13:50:52;;;;;;;5.95;4.00;;;;;;;29.60;59.88;100240.97;8244292;28;20041;-89
2023/09/16 13:54:53;;;;;;;4.78;3.65;;;;;;;29.47;58.08;100245.09;8294173;28;20050;-89
2023/09/16 13:58:54;;;;;;;7.45;3.92;;;;;;;29.41;58.74;100254.53;8288001;28;20626;-90
2023/09/16 14:02:54;;;;;;;8.98;4.13;;;;;;;29.09;59.25;100214.75;8261920;28;20050;-89
2023/09/16 14:06:55;;;;;;;11.00;4.13;;;;;;;29.36;59.55;100221.06;8281981;28;20069;-89
2023/09/16 14:10:55;;;;;;;10.43;4.05;;;;;;;29.35;59.39;100247.25;8240318;28;20053;-89
2023/09/16 14:14:56;;;;;;;8.95;4.22;;;;;;;29.11;59.71;100247.91;8240935;28;20101;-89
2023/09/16 14:18:58;;;;;;;7.28;4.00;;;;;;;29.11;60.25;100254.34;8255868;28;20101;-89
2023/09/16 14:23:00;;;;;;;7.75;3.80;;;;;;;28.93;60.98;100243.59;8255963;28;20038;-88
2023/09/16 14:27:00;;;;;;;4.55;3.97;;;;;;;28.95;60.22;100246.94;8268662;28;20117;-88
2023/09/16 14:31:06;;;;;;;7.57;4.20;;;;;;;28.92;61.13;100247.47;8277680;28;20093;-88
2023/09/16 14:35:08;;;;;;;5.10;3.95;;;;;;;28.68;60.50;100235.03;8256783;28;20041;-87
2023/09/16 14:39:09;;;;;;;5.55;4.15;;;;;;;28.63;60.75;100237.75;8255720;28;20049;-88
2023/09/16 14:43:09;;;;;;;5.53;4.20;;;;;;;28.58;61.91;100243.31;8272537;28;20048;-89
2023/09/16 14:47:12;;;;;;;8.10;3.70;;;;;;;28.57;62.30;100258.28;8266794;28;20045;-88
2023/09/16 14:51:13;;;;;;;4.40;4.00;;;;;;;28.51;63.12;100248.22;8257561;28;20057;-88
2023/09/16 14:55:16;;;;;;;6.97;3.55;;;;;;;28.36;64.53;100237.75;8268381;28;20038;-87
2023/09/16 14:59:17;;;;;;;4.78;3.88;;;;;;;28.25;65.65;100254.63;8267496;28;20030;-88
2023/09/16 15:03:17;;;;;;;4.85;4.32;;;;;;;28.11;66.01;100245.00;8251388;28;20088;-88
2023/09/16 15:07:18;;;;;;;4.65;4.07;;;;;;;27.97;67.34;100260.41;8274288;28;20097;-88
2023/09/16 15:11:18;;;;;;;5.93;4.00;;;;;;;27.99;67.36;100253.50;8270190;28;20042;-88
2023/09/16 15:15:19;;;;;;;5.60;3.92;;;;;;;28.20;66.38;100243.44;8249064;28;20038;-88
2023/09/16 15:19:19;;;;;;;6.78;4.53;;;;;;;28.22;67.38;100253.22;8240303;28;20551;-88
2023/09/16 15:23:20;;;;;;;4.90;3.80;;;;;;;28.19;66.57;100252.88;8238469;28;20042;-88
2023/09/16 15:27:22;;;;;;;4.13;3.72;;;;;;;28.18;67.17;100262.34;8255906;28;20044;-88
2023/09/16 15:31:23;;;;;;;5.68;3.80;;;;;;;28.06;68.41;100247.75;8240417;28;20259;-89
2023/09/16 15:35:23;;;;;;;7.43;4.10;;;;;;;28.03;69.50;100248.25;8258977;28;20064;-90
2023/09/16 15:39:24;;;;;;;4.45;4.05;;;;;;;28.20;67.25;100266.53;8270122;28;20064;-89
2023/09/16 15:43:25;;;;;;;6.15;3.25;;;;;;;28.28;67.94;100284.69;8247416;28;20166;-89
2023/09/16 15:47:25;;;;;;;4.15;3.75;;;;;;;28.05;67.74;100265.50;8239198;28;20041;-90
2023/09/16 15:51:26;;;;;;;6.70;4.00;;;;;;;28.10;68.23;100282.25;8271832;28;20100;-89
2023/09/16 15:55:27;;;;;;;5.15;3.17;;;;;;;28.06;68.69;100283.88;8274993;28;20038;-89
2023/09/16 15:59:28;;;;;;;4.28;3.88;;;;;;;27.93;67.96;100276.75;8269837;28;20041;-89
2023/09/16 16:03:28;;;;;;;4.47;3.75;;;;;;;27.94;68.86;100288.72;8258657;28;20221;-88
2023/09/16 16:07:30;;;;;;;5.15;3.63;;;;;;;27.99;68.29;100277.69;8275076;28;20041;-89
2023/09/16 16:11:31;;;;;;;7.63;4.88;;;;;;;27.70;72.85;100273.38;8255283;28;20046;-88
2023/09/16 16:15:32;;;;;;;6.32;4.60;;;;;;;27.55;73.57;100274.03;8274176;28;20050;-89
2023/09/16 16:19:32;;;;;;;8.18;4.60;;;;;;;27.60;73.06;100276.03;8256904;28;20054;-88
2023/09/16 16:23:33;;;;;;;4.90;4.40;;;;;;;27.38;73.19;100262.09;8274082;28;20519;-86
2023/09/16 16:27:33;;;;;;;5.95;4.57;;;;;;;27.59;72.23;100271.53;8265711;28;20053;-86
2023/09/16 16:31:34;;;;;;;5.53;4.18;;;;;;;27.35;78.49;100290.38;8260756;28;20038;-86
2023/09/16 16:35:35;;;;;;;9.05;4.78;;;;;;;26.86;78.69;100291.22;8263239;28;20050;-85
2023/09/16 16:39:35;;;;;;;8.73;4.70;;;;;;;26.70;78.63;100303.16;8257738;28;20109;-87
2023/09/16 16:43:35;;;;;;;7.05;4.60;;;;;;;26.47;79.09;100276.38;8283824;28;20046;-89
2023/09/16 16:47:38;;;;;;;5.47;4.63;;;;;;;26.40;80.90;100286.78;8258970;28;20081;-88
2023/09/16 16:51:39;;;;;;;6.70;5.05;;;;;;;26.03;82.25;100246.72;8245700;28;20495;-88
2023/09/16 16:55:40;;;;;;;8.05;4.63;;;;;;;26.12;82.24;100289.56;8261269;28;20408;-88
2023/09/16 16:59:40;;;;;;;8.40;4.53;;;;;;;25.91;82.70;100284.66;8280036;28;20072;-89
2023/09/16 17:03:41;;;;;;;6.10;4.30;;;;;;;25.83;83.39;100287.81;8259627;28;20528;-88
2023/09/16 17:07:43;;;;;;;9.05;4.47;;;;;;;25.63;82.36;100268.00;8279343;28;20048;-87
2023/09/16 17:11:43;;;;;;;6.88;3.90;;;;;;;25.57;81.37;100263.44;8261073;28;20038;-88
2023/09/16 17:15:44;;;;;;;5.22;3.17;;;;;;;25.76;77.99;100273.25;8246055;28;20615;-88
2023/09/16 17:19:44;;;;;;;3.80;2.58;;;;;;;25.79;76.48;100267.22;8272253;28;20499;-87
2023/09/16 17:23:45;;;;;;;4.75;3.10;;;;;;;25.84;74.28;100275.66;8252239;28;20082;-87
2023/09/16 17:27:46;;;;;;;6.43;2.53;;;;;;;25.87;75.01;100279.84;8251209;28;20072;-87
2023/09/16 17:31:46;;;;;;;4.18;2.60;;;;;;;25.64;76.07;100261.38;8261193;28;20057;-87
2023/09/16 17:35:49;;;;;;;3.30;2.50;;;;;;;25.51;76.88;100264.41;8293691;28;20049;-87
2023/09/16 17:39:50;;;;;;;6.40;3.00;;;;;;;25.46;77.95;100271.78;8275966;28;20078;-87
2023/09/16 17:43:50;;;;;;;5.28;3.40;;;;;;;25.38;78.38;100275.75;8261203;28;20041;-87
2023/09/16 17:47:51;;;;;;;4.38;3.42;;;;;;;25.41;79.69;100291.03;8259016;28;20508;-87
2023/09/16 17:51:52;;;;;;;5.05;3.97;;;;;;;25.34;80.50;100291.16;8243274;28;20053;-87
2023/09/16 17:55:53;;;;;;;5.55;4.13;;;;;;;25.19;82.61;100288.00;8260920;28;20136;-87
2023/09/16 17:59:54;;;;;;;6.28;4.28;;;;;;;25.12;83.32;100283.69;8261620;28;20037;-88
2023/09/16 18:03:54;;;;;;;5.97;4.30;;;;;;;25.02;83.90;100278.72;8273850;28;20112;-88
2023/09/16 18:07:55;;;;;;;6.50;5.22;;;;;;;24.94;84.56;100287.38;8246502;28;20048;-88
2023/09/16 18:11:55;;;;;;;5.85;4.22;;;;;;;24.82;85.30;100278.22;8258941;28;20075;-88
2023/09/16 18:15:56;;;;;;;7.45;4.22;;;;;;;24.76;87.28;100293.84;8259351;28;20462;-88
2023/09/16 18:19:57;;;;;;;5.53;4.63;;;;;;;24.28;88.01;100250.81;8257828;28;20576;-88
2023/09/16 18:23:57;;;;;;;11.18;9.43;;;;;;;24.50;88.00;100293.41;8253516;28;20066;-88
2023/09/16 18:27:58;;;;;;;7.28;4.72;;;;;;;24.34;90.15;100299.63;8244420;28;20040;-87
2023/09/16 18:31:59;;;;;;;6.50;4.95;;;;;;;24.08;90.84;100306.34;8259810;28;20034;-89
2023/09/16 18:36:00;;;;;;;11.55;9.10;;;;;;;24.36;89.66;100314.88;8244367;28;20448;-89
2023/09/16 18:40:01;;;;;;;111.45;38.15;;;;;;;24.45;88.40;100307.09;8265604;28;20060;-89